createdAt,value
2023-05-07T00:00:05.683Z,18.80
2023-05-07T00:02:36.203Z,18.90
2023-05-07T00:05:07.339Z,18.90
2023-05-07T00:07:38.523Z,18.90
2023-05-07T00:10:10.189Z,18.80
2023-05-07T00:12:40.757Z,18.80
2023-05-07T00:15:11.907Z,18.80
2023-05-07T00:17:42.477Z,18.90
2023-05-07T00:20:13.377Z,18.80
2023-05-07T00:22:43.752Z,18.80
2023-05-07T00:25:14.049Z,18.80
2023-05-07T00:27:44.358Z,18.90
2023-05-07T00:30:15.043Z,18.80
2023-05-07T00:32:48.044Z,18.80
2023-05-07T00:35:18.197Z,18.80
2023-05-07T00:37:48.532Z,18.80
2023-05-07T00:40:18.901Z,18.80
2023-05-07T00:42:49.699Z,18.80
2023-05-07T00:45:20.458Z,18.80
2023-05-07T00:47:50.778Z,18.80
2023-05-07T00:50:21.773Z,18.80
2023-05-07T00:52:52.330Z,18.80
2023-05-07T00:55:22.918Z,18.80
2023-05-07T00:57:54.027Z,18.80
2023-05-07T01:00:24.422Z,18.80
2023-05-07T01:02:54.879Z,18.80
2023-05-07T01:05:27.981Z,18.80
2023-05-07T01:08:00.153Z,18.80
2023-05-07T01:10:33.227Z,18.80
2023-05-07T01:13:04.098Z,18.80
2023-05-07T01:15:34.324Z,18.80
2023-05-07T01:18:04.607Z,18.80
2023-05-07T01:20:34.862Z,18.80
2023-05-07T01:23:06.506Z,18.80
2023-05-07T01:25:36.966Z,18.80
2023-05-07T01:28:08.418Z,18.80
2023-05-07T01:30:39.286Z,18.80
2023-05-07T01:33:16.954Z,18.80
2023-05-07T01:35:50.747Z,18.80
2023-05-07T01:38:30.765Z,18.80
2023-05-07T01:41:02.004Z,18.80
2023-05-07T01:43:33.569Z,18.80
2023-05-07T01:46:05.865Z,18.80
2023-05-07T01:48:37.231Z,18.80
2023-05-07T01:51:08.836Z,18.80
2023-05-07T01:53:43.576Z,18.80
2023-05-07T01:56:13.925Z,18.90
2023-05-07T01:58:44.255Z,18.80
2023-05-07T02:01:14.560Z,18.90
2023-05-07T02:03:45.041Z,18.80
2023-05-07T02:06:15.375Z,18.90
2023-05-07T02:08:45.928Z,18.90
2023-05-07T02:11:16.388Z,18.90
2023-05-07T02:13:46.999Z,18.90
2023-05-07T02:16:17.512Z,18.90
2023-05-07T02:18:47.864Z,18.90
2023-05-07T02:21:18.161Z,18.80
2023-05-07T02:23:48.521Z,18.90
2023-05-07T02:26:18.974Z,18.90
2023-05-07T02:28:50.011Z,18.90
2023-05-07T02:31:20.309Z,18.90
2023-05-07T02:33:50.832Z,18.90
2023-05-07T02:36:21.078Z,18.90
2023-05-07T02:38:51.367Z,18.90
2023-05-07T02:41:21.634Z,18.90
2023-05-07T02:43:51.985Z,18.90
2023-05-07T02:46:22.383Z,18.90
2023-05-07T02:48:52.722Z,18.90
2023-05-07T02:51:26.501Z,18.90
2023-05-07T02:53:56.871Z,18.90
2023-05-07T02:56:29.589Z,18.90
2023-05-07T02:58:59.820Z,18.90
2023-05-07T03:01:30.104Z,18.90
2023-05-07T03:04:00.412Z,18.90
2023-05-07T03:06:31.127Z,18.90
2023-05-07T03:09:01.533Z,18.90
2023-05-07T03:11:31.848Z,18.90
2023-05-07T03:14:02.075Z,18.90
2023-05-07T03:16:32.693Z,18.90
2023-05-07T03:19:03.091Z,18.90
2023-05-07T03:21:36.410Z,18.90
2023-05-07T03:24:06.788Z,18.90
2023-05-07T03:26:37.029Z,18.90
2023-05-07T03:29:07.327Z,18.90
2023-05-07T03:31:37.771Z,18.90
2023-05-07T03:34:08.304Z,18.90
2023-05-07T03:36:38.566Z,18.90
2023-05-07T03:39:08.886Z,18.90
2023-05-07T03:41:39.087Z,18.90
2023-05-07T03:44:09.471Z,19.00
2023-05-07T03:46:39.820Z,19.00
2023-05-07T03:49:10.304Z,18.90
2023-05-07T03:51:40.517Z,19.00
2023-05-07T03:54:11.014Z,19.00
2023-05-07T03:56:41.184Z,19.00
2023-05-07T03:59:11.837Z,19.00
2023-05-07T04:01:42.142Z,19.00
2023-05-07T04:04:12.771Z,19.00
2023-05-07T04:06:42.943Z,19.00
2023-05-07T04:09:13.172Z,19.00
2023-05-07T04:11:43.652Z,19.00
2023-05-07T04:14:14.120Z,19.00
2023-05-07T04:16:44.352Z,19.00
2023-05-07T04:19:14.567Z,19.00
2023-05-07T04:21:44.843Z,19.00
2023-05-07T04:24:15.171Z,18.90
2023-05-07T04:26:45.511Z,19.00
2023-05-07T04:29:15.727Z,19.00
2023-05-07T04:31:48.854Z,19.00
2023-05-07T04:34:19.374Z,19.00
2023-05-07T04:36:50.680Z,19.00
2023-05-07T04:39:20.914Z,19.00
2023-05-07T04:41:51.553Z,19.00
2023-05-07T04:44:22.146Z,19.00
2023-05-07T04:46:52.694Z,19.00
2023-05-07T04:49:22.905Z,19.10
2023-05-07T04:51:53.363Z,19.10
2023-05-07T04:54:23.562Z,19.10
2023-05-07T04:56:53.976Z,19.10
2023-05-07T04:59:24.194Z,19.10
2023-05-07T05:01:54.484Z,19.10
2023-05-07T05:04:24.712Z,19.10
2023-05-07T05:06:55.145Z,19.20
2023-05-07T05:09:25.660Z,19.10
2023-05-07T05:11:56.028Z,19.20
2023-05-07T05:14:26.504Z,19.20
2023-05-07T05:16:57.084Z,19.20
2023-05-07T05:19:27.456Z,19.20
2023-05-07T05:21:57.918Z,19.20
2023-05-07T05:24:28.235Z,19.20
2023-05-07T05:26:58.590Z,19.20
2023-05-07T05:29:29.036Z,19.30
2023-05-07T05:31:59.749Z,19.30
2023-05-07T05:34:30.286Z,19.30
2023-05-07T05:37:01.853Z,19.30
2023-05-07T05:39:32.129Z,19.30
2023-05-07T05:42:02.476Z,19.30
2023-05-07T05:44:32.657Z,19.30
2023-05-07T05:47:03.000Z,19.30
2023-05-07T05:49:33.285Z,19.40
2023-05-07T05:52:03.506Z,19.30
2023-05-07T05:54:33.714Z,19.40
2023-05-07T05:57:06.726Z,19.30
2023-05-07T05:59:37.133Z,19.40
2023-05-07T06:02:07.951Z,19.40
2023-05-07T06:04:38.194Z,19.40
2023-05-07T06:07:08.604Z,19.40
2023-05-07T06:09:38.832Z,19.40
2023-05-07T06:12:09.358Z,19.40
2023-05-07T06:14:39.702Z,19.40
2023-05-07T06:17:09.986Z,19.40
2023-05-07T06:19:40.252Z,19.50
2023-05-07T06:22:10.606Z,19.50
2023-05-07T06:24:40.765Z,19.50
2023-05-07T06:27:10.898Z,19.50
2023-05-07T06:29:41.119Z,19.50
2023-05-07T06:32:12.946Z,19.50
2023-05-07T06:34:44.292Z,19.50
2023-05-07T06:37:14.556Z,19.50
2023-05-07T06:39:44.800Z,19.50
2023-05-07T06:42:15.069Z,19.50
2023-05-07T06:44:45.248Z,19.50
2023-05-07T06:47:16.221Z,19.60
2023-05-07T06:49:47.286Z,19.50
2023-05-07T06:52:17.536Z,19.60
2023-05-07T06:54:47.717Z,19.60
2023-05-07T06:57:17.889Z,19.60
2023-05-07T06:59:48.181Z,19.60
2023-05-07T07:02:18.652Z,19.60
2023-05-07T07:04:48.930Z,19.60
2023-05-07T07:07:19.300Z,19.60
2023-05-07T07:09:49.487Z,19.60
2023-05-07T07:12:19.694Z,19.60
2023-05-07T07:14:50.021Z,19.70
2023-05-07T07:17:20.342Z,19.60
2023-05-07T07:19:50.465Z,19.70
2023-05-07T07:22:20.972Z,19.70
2023-05-07T07:24:51.147Z,19.70
2023-05-07T07:27:21.390Z,19.70
2023-05-07T07:29:51.706Z,19.70
2023-05-07T07:32:22.385Z,19.70
2023-05-07T07:34:52.702Z,19.80
2023-05-07T07:37:22.908Z,19.80
2023-05-07T07:39:53.086Z,19.80
2023-05-07T07:42:23.521Z,19.90
2023-05-07T07:44:53.820Z,19.90
2023-05-07T07:47:24.209Z,19.90
2023-05-07T07:49:54.355Z,19.90
2023-05-07T07:52:24.590Z,19.90
2023-05-07T07:54:54.757Z,20.00
2023-05-07T07:57:25.144Z,20.00
2023-05-07T07:59:55.362Z,20.00
2023-05-07T08:02:25.925Z,20.10
2023-05-07T08:04:56.248Z,20.10
2023-05-07T08:07:27.172Z,20.10
2023-05-07T08:09:58.109Z,20.10
2023-05-07T08:12:28.448Z,20.10
2023-05-07T08:14:58.725Z,20.10
2023-05-07T08:17:29.033Z,20.20
2023-05-07T08:19:59.264Z,20.20
2023-05-07T08:22:29.611Z,20.20
2023-05-07T08:24:59.873Z,20.20
2023-05-07T08:27:30.481Z,20.30
2023-05-07T08:30:00.684Z,20.20
2023-05-07T08:32:31.136Z,20.30
2023-05-07T08:35:01.394Z,20.30
2023-05-07T08:37:31.559Z,20.30
2023-05-07T08:40:01.754Z,20.30
2023-05-07T08:42:32.917Z,20.40
2023-05-07T08:45:05.520Z,20.40
2023-05-07T08:47:43.529Z,20.30
2023-05-07T08:50:14.569Z,20.30
2023-05-07T08:52:45.270Z,20.40
2023-05-07T08:55:17.771Z,20.40
2023-05-07T08:57:48.217Z,20.30
2023-05-07T09:00:18.850Z,20.40
2023-05-07T09:02:49.372Z,20.30
2023-05-07T09:05:19.860Z,20.40
2023-05-07T09:07:51.256Z,20.40
2023-05-07T09:10:23.711Z,20.40
2023-05-07T09:12:54.925Z,20.30
2023-05-07T09:15:25.211Z,20.40
2023-05-07T09:17:55.502Z,20.40
2023-05-07T09:20:25.858Z,20.40
2023-05-07T09:22:58.323Z,20.40
2023-05-07T09:25:35.957Z,20.40
2023-05-07T09:28:09.975Z,20.40
2023-05-07T09:30:41.249Z,20.40
2023-05-07T09:33:11.826Z,20.40
2023-05-07T09:35:42.675Z,20.40
2023-05-07T09:38:13.485Z,20.30
2023-05-07T09:40:43.759Z,20.40
2023-05-07T09:43:15.998Z,20.40
2023-05-07T09:45:46.991Z,20.40
2023-05-07T09:48:21.221Z,20.30
2023-05-07T09:50:55.131Z,20.40
2023-05-07T09:53:25.918Z,20.40
2023-05-07T09:55:57.498Z,20.40
2023-05-07T09:58:30.222Z,20.30
2023-05-07T10:01:00.946Z,20.30
2023-05-07T10:03:35.227Z,20.40
2023-05-07T10:06:06.758Z,20.40
2023-05-07T10:08:37.889Z,20.40
2023-05-07T10:11:11.383Z,20.40
2023-05-07T10:13:41.757Z,20.40
2023-05-07T10:16:12.137Z,20.40
2023-05-07T10:18:43.762Z,20.40
2023-05-07T10:21:26.416Z,20.40
2023-05-07T10:24:18.775Z,20.40
2023-05-07T10:26:51.648Z,20.40
2023-05-07T10:29:49.269Z,20.30
2023-05-07T10:32:40.581Z,20.30
2023-05-07T10:35:29.392Z,20.30
2023-05-07T10:38:00.167Z,20.30
2023-05-07T10:40:30.570Z,20.30
2023-05-07T10:43:06.456Z,20.30
2023-05-07T10:45:38.855Z,20.30
2023-05-07T10:48:28.718Z,20.30
2023-05-07T10:51:26.348Z,20.30
2023-05-07T10:54:15.415Z,20.30
2023-05-07T10:56:46.508Z,20.30
2023-05-07T10:59:23.763Z,20.30
2023-05-07T11:01:58.669Z,20.30
2023-05-07T11:04:30.347Z,20.30
2023-05-07T11:07:16.337Z,20.30
2023-05-07T11:10:01.090Z,20.30
2023-05-07T11:12:43.617Z,20.30
2023-05-07T11:15:21.220Z,20.20
2023-05-07T11:17:59.102Z,20.20
2023-05-07T11:21:06.186Z,20.20
2023-05-07T11:23:39.977Z,20.10
2023-05-07T11:26:14.293Z,20.10
2023-05-07T11:28:45.967Z,20.00
2023-05-07T11:31:16.589Z,20.00
2023-05-07T11:33:48.011Z,20.00
2023-05-07T11:36:18.690Z,20.00
2023-05-07T11:38:49.086Z,19.90
2023-05-07T11:41:22.512Z,19.90
2023-05-07T11:44:00.095Z,19.90
2023-05-07T11:46:31.619Z,19.90
2023-05-07T11:49:03.819Z,19.90
2023-05-07T11:51:35.353Z,19.90
2023-05-07T11:54:11.381Z,19.80
2023-05-07T11:56:42.120Z,19.80
2023-05-07T11:59:12.416Z,19.80
2023-05-07T12:01:42.946Z,19.80
2023-05-07T12:04:13.212Z,19.70
2023-05-07T12:06:43.737Z,19.70
2023-05-07T12:09:14.288Z,19.70
2023-05-07T12:11:49.319Z,19.70
2023-05-07T12:14:19.802Z,19.60
2023-05-07T12:16:50.892Z,19.60
2023-05-07T12:19:21.493Z,19.60
2023-05-07T12:21:52.416Z,19.50
2023-05-07T12:24:23.240Z,19.50
2023-05-07T12:26:53.714Z,19.50
2023-05-07T12:29:27.078Z,19.50
2023-05-07T12:31:57.619Z,19.50
2023-05-07T12:34:28.014Z,19.40
2023-05-07T12:36:58.738Z,19.40
2023-05-07T12:39:29.054Z,19.40
2023-05-07T12:42:03.104Z,19.40
2023-05-07T12:44:34.892Z,19.40
2023-05-07T12:47:08.107Z,19.40
2023-05-07T12:49:42.717Z,19.30
2023-05-07T12:52:14.552Z,19.30
2023-05-07T12:54:44.850Z,19.30
2023-05-07T12:57:15.038Z,19.30
2023-05-07T12:59:45.863Z,19.20
2023-05-07T13:02:16.139Z,19.20
2023-05-07T13:04:46.343Z,19.20
2023-05-07T13:07:16.554Z,19.10
2023-05-07T13:09:47.387Z,19.10
2023-05-07T13:12:17.509Z,19.10
2023-05-07T13:14:47.751Z,19.10
2023-05-07T13:17:17.987Z,19.10
2023-05-07T13:19:48.270Z,19.10
2023-05-07T13:22:18.588Z,19.10
2023-05-07T13:24:48.893Z,19.00
2023-05-07T13:27:19.175Z,19.00
2023-05-07T13:29:49.367Z,19.00
2023-05-07T13:32:19.544Z,19.00
2023-05-07T13:34:49.715Z,19.00
2023-05-07T13:37:20.063Z,18.90
2023-05-07T13:39:50.299Z,18.90
2023-05-07T13:42:20.753Z,18.90
2023-05-07T13:44:51.117Z,18.90
2023-05-07T13:47:21.985Z,18.90
2023-05-07T13:49:53.334Z,18.80
2023-05-07T13:52:23.747Z,18.80
2023-05-07T13:54:55.180Z,18.80
2023-05-07T13:57:25.667Z,18.80
2023-05-07T13:59:56.144Z,18.80
2023-05-07T14:02:26.665Z,18.70
2023-05-07T14:04:57.426Z,18.70
2023-05-07T14:07:27.948Z,18.70
2023-05-07T14:09:59.252Z,18.70
2023-05-07T14:12:29.491Z,18.70
2023-05-07T14:14:59.786Z,18.60
2023-05-07T14:17:30.137Z,18.60
2023-05-07T14:20:01.402Z,18.60
2023-05-07T14:22:31.760Z,18.60
2023-05-07T14:25:06.747Z,18.60
2023-05-07T14:27:37.698Z,18.50
2023-05-07T14:30:08.492Z,18.50
2023-05-07T14:32:39.160Z,18.50
2023-05-07T14:35:09.842Z,18.50
2023-05-07T14:37:40.339Z,18.40
2023-05-07T14:40:11.385Z,18.40
2023-05-07T14:42:41.971Z,18.40
2023-05-07T14:45:13.103Z,18.40
2023-05-07T14:47:43.449Z,18.40
2023-05-07T14:50:13.853Z,18.40
2023-05-07T14:52:44.075Z,18.30
2023-05-07T14:55:14.968Z,18.30
2023-05-07T14:57:45.223Z,18.30
2023-05-07T15:00:16.060Z,18.30
2023-05-07T15:02:46.432Z,18.20
2023-05-07T15:05:17.432Z,18.20
2023-05-07T15:07:48.810Z,18.20
2023-05-07T15:10:19.081Z,18.20
2023-05-07T15:12:49.350Z,18.10
2023-05-07T15:15:19.664Z,18.10
2023-05-07T15:17:49.913Z,18.10
2023-05-07T15:20:20.311Z,18.10
2023-05-07T15:22:50.563Z,18.10
2023-05-07T15:25:20.864Z,18.10
2023-05-07T15:27:51.146Z,18.10
2023-05-07T15:30:22.843Z,18.00
2023-05-07T15:32:53.383Z,18.00
2023-05-07T15:35:24.616Z,18.00
2023-05-07T15:37:58.188Z,18.00
2023-05-07T15:40:28.430Z,18.00
2023-05-07T15:42:59.355Z,17.90
2023-05-07T15:45:30.076Z,17.90
2023-05-07T15:48:01.064Z,17.90
2023-05-07T15:50:31.532Z,17.90
2023-05-07T15:53:02.051Z,17.80
2023-05-07T15:55:33.087Z,17.80
2023-05-07T15:58:04.617Z,17.80
2023-05-07T16:00:35.034Z,17.80
2023-05-07T16:03:06.090Z,17.80
2023-05-07T16:05:36.485Z,17.80
2023-05-07T16:08:19.235Z,17.80
2023-05-07T16:10:49.382Z,17.70
2023-05-07T16:13:22.524Z,17.70
2023-05-07T16:15:53.017Z,17.70
2023-05-07T16:18:23.144Z,17.70
2023-05-07T16:20:53.294Z,17.60
2023-05-07T16:23:23.980Z,17.70
2023-05-07T16:25:54.225Z,17.60
2023-05-07T16:28:25.583Z,17.60
2023-05-07T16:30:56.153Z,17.60
2023-05-07T16:33:26.356Z,17.60
2023-05-07T16:35:56.719Z,17.50
2023-05-07T16:38:31.055Z,17.50
2023-05-07T16:41:01.499Z,17.50
2023-05-07T16:43:31.741Z,17.50
2023-05-07T16:46:02.136Z,17.40
2023-05-07T16:48:32.349Z,17.50
2023-05-07T16:51:02.596Z,17.40
2023-05-07T16:53:32.793Z,17.40
2023-05-07T16:56:06.066Z,17.40
2023-05-07T16:58:36.594Z,17.40
2023-05-07T17:01:07.111Z,17.40
2023-05-07T17:03:37.623Z,17.30
2023-05-07T17:06:14.552Z,17.30
2023-05-07T17:08:45.119Z,17.30
2023-05-07T17:11:15.310Z,17.30
2023-05-07T17:13:45.484Z,17.30
2023-05-07T17:16:15.849Z,17.30
2023-05-07T17:18:46.034Z,17.20
2023-05-07T17:21:16.282Z,17.20
2023-05-07T17:23:46.556Z,17.20
2023-05-07T17:26:17.659Z,17.20
2023-05-07T17:28:47.805Z,17.20
2023-05-07T17:31:18.158Z,17.20
2023-05-07T17:33:48.429Z,17.10
2023-05-07T17:36:18.870Z,17.10
2023-05-07T17:38:49.175Z,17.10
2023-05-07T17:41:19.435Z,17.10
2023-05-07T17:43:49.844Z,17.10
2023-05-07T17:46:20.121Z,17.10
2023-05-07T17:48:50.689Z,17.00
2023-05-07T17:51:20.910Z,17.00
2023-05-07T17:53:51.975Z,17.00
2023-05-07T17:56:22.206Z,17.00
2023-05-07T17:58:59.234Z,17.00
2023-05-07T18:01:29.935Z,17.00
2023-05-07T18:04:00.557Z,16.90
2023-05-07T18:06:31.018Z,16.90
2023-05-07T18:09:01.473Z,16.90
2023-05-07T18:11:33.950Z,16.90
2023-05-07T18:14:04.550Z,16.90
2023-05-07T18:16:34.972Z,16.90
2023-05-07T18:19:05.669Z,16.90
2023-05-07T18:21:35.909Z,16.80
2023-05-07T18:24:06.655Z,16.80
2023-05-07T18:26:37.252Z,16.80
2023-05-07T18:29:07.477Z,16.80
2023-05-07T18:31:38.240Z,16.80
2023-05-07T18:34:08.821Z,16.70
2023-05-07T18:36:39.307Z,16.70
2023-05-07T18:39:10.358Z,16.70
2023-05-07T18:41:41.014Z,16.70
2023-05-07T18:44:11.520Z,16.70
2023-05-07T18:46:42.035Z,16.70
2023-05-07T18:49:15.074Z,16.70
2023-05-07T18:51:45.706Z,16.60
2023-05-07T18:54:16.187Z,16.60
2023-05-07T18:56:46.385Z,16.60
2023-05-07T18:59:16.701Z,16.60
2023-05-07T19:01:47.805Z,16.60
2023-05-07T19:04:19.718Z,16.50
2023-05-07T19:06:50.053Z,16.50
2023-05-07T19:09:20.706Z,16.50
2023-05-07T19:11:50.934Z,16.50
2023-05-07T19:14:21.233Z,16.50
2023-05-07T19:16:51.504Z,16.50
2023-05-07T19:19:21.736Z,16.40
2023-05-07T19:21:52.045Z,16.40
2023-05-07T19:24:22.443Z,16.40
2023-05-07T19:26:52.673Z,16.40
2023-05-07T19:29:22.837Z,16.40
2023-05-07T19:31:53.093Z,16.40
2023-05-07T19:34:23.685Z,16.30
2023-05-07T19:36:53.838Z,16.30
2023-05-07T19:39:24.104Z,16.30
2023-05-07T19:41:54.478Z,16.30
2023-05-07T19:44:24.712Z,16.30
2023-05-07T19:46:54.872Z,16.30
2023-05-07T19:49:25.388Z,16.30
2023-05-07T19:51:55.721Z,16.30
2023-05-07T19:54:25.995Z,16.20
2023-05-07T19:56:58.352Z,16.20
2023-05-07T19:59:29.428Z,16.20
2023-05-07T20:01:59.728Z,16.20
2023-05-07T20:04:31.579Z,16.20
2023-05-07T20:07:02.306Z,16.20
2023-05-07T20:09:32.833Z,16.10
2023-05-07T20:12:03.093Z,16.10
2023-05-07T20:14:34.233Z,16.10
2023-05-07T20:17:04.519Z,16.10
2023-05-07T20:19:34.864Z,16.10
2023-05-07T20:22:05.075Z,16.00
2023-05-07T20:24:42.647Z,16.10
2023-05-07T20:27:13.184Z,16.10
2023-05-07T20:29:43.674Z,16.00
2023-05-07T20:32:14.069Z,16.00
2023-05-07T20:34:44.515Z,16.00
2023-05-07T20:37:18.109Z,16.00
2023-05-07T20:39:48.821Z,16.00
2023-05-07T20:42:19.322Z,16.00
2023-05-07T20:44:49.758Z,16.10
2023-05-07T20:47:20.299Z,16.10
2023-05-07T20:49:54.803Z,16.20
2023-05-07T20:52:25.040Z,16.20
2023-05-07T20:54:55.381Z,16.30
2023-05-07T20:57:25.737Z,16.30
2023-05-07T20:59:55.969Z,16.40
2023-05-07T21:02:26.299Z,16.40
2023-05-07T21:04:56.509Z,16.50
2023-05-07T21:07:29.923Z,16.50
2023-05-07T21:10:00.073Z,16.60
2023-05-07T21:12:30.391Z,16.60
2023-05-07T21:15:00.778Z,16.60
2023-05-07T21:17:33.302Z,16.60
2023-05-07T21:20:05.421Z,16.60
2023-05-07T21:22:35.895Z,16.70
2023-05-07T21:25:06.315Z,16.70
2023-05-07T21:27:36.494Z,16.70
2023-05-07T21:30:07.424Z,16.80
2023-05-07T21:32:37.813Z,16.90
2023-05-07T21:35:08.729Z,16.90
2023-05-07T21:37:38.996Z,17.00
2023-05-07T21:40:10.944Z,17.00
2023-05-07T21:42:41.319Z,17.10
2023-05-07T21:45:12.154Z,17.10
2023-05-07T21:47:42.469Z,17.20
2023-05-07T21:50:13.331Z,17.20
2023-05-07T21:52:44.094Z,17.30
2023-05-07T21:55:14.437Z,17.40
2023-05-07T21:57:53.761Z,17.40
2023-05-07T22:00:28.121Z,17.50
2023-05-07T22:02:58.545Z,17.60
2023-05-07T22:05:28.960Z,17.70
2023-05-07T22:07:59.302Z,17.70
2023-05-07T22:10:29.717Z,17.80
2023-05-07T22:12:59.930Z,17.80
2023-05-07T22:15:30.112Z,17.90
2023-05-07T22:18:00.443Z,18.00
2023-05-07T22:20:30.692Z,18.00
2023-05-07T22:23:00.892Z,18.10
2023-05-07T22:25:38.404Z,18.10
2023-05-07T22:28:08.678Z,18.20
2023-05-07T22:30:39.090Z,18.20
2023-05-07T22:33:09.600Z,18.30
2023-05-07T22:35:39.821Z,18.30
2023-05-07T22:38:12.364Z,18.30
2023-05-07T22:40:42.533Z,18.40
2023-05-07T22:43:12.821Z,18.40
2023-05-07T22:45:43.020Z,18.40
2023-05-07T22:48:13.346Z,18.50
2023-05-07T22:50:43.624Z,18.50
2023-05-07T22:53:13.810Z,18.60
2023-05-07T22:55:44.057Z,18.60
2023-05-07T22:58:14.221Z,18.60
2023-05-07T23:00:44.908Z,18.70
2023-05-07T23:03:15.328Z,18.70
2023-05-07T23:05:45.961Z,18.70
2023-05-07T23:08:19.136Z,18.70
2023-05-07T23:10:49.270Z,18.80
2023-05-07T23:13:19.676Z,18.80
2023-05-07T23:15:50.484Z,18.80
2023-05-07T23:18:20.734Z,18.70
2023-05-07T23:20:51.005Z,18.80
2023-05-07T23:23:21.329Z,18.80
2023-05-07T23:25:54.993Z,18.80
2023-05-07T23:28:25.357Z,18.90
2023-05-07T23:30:55.681Z,18.90
2023-05-07T23:33:26.136Z,18.90
2023-05-07T23:36:06.968Z,18.90
2023-05-07T23:38:37.593Z,18.90
2023-05-07T23:41:07.860Z,18.90
2023-05-07T23:43:38.217Z,18.90
2023-05-07T23:46:08.561Z,19.00
2023-05-07T23:48:38.832Z,19.00
2023-05-07T23:51:09.121Z,19.00
2023-05-07T23:53:40.027Z,19.00
2023-05-07T23:56:10.361Z,19.00
2023-05-07T23:58:40.714Z,19.10
